Time;durP1;ratioP1;P1;durP2;ratioP2;P2;SDS_P1;SDS_P2;PMS_P1;PMS_P2;Temp;Humidity;BMP_temperature;BMP_pressure;BME280_temperature;BME280_humidity;BME280_pressure;Samples;Min_cycle;Max_cycle;Signal;HPM_P1;HPM_P2
2022/05/16 00:00:06;;;;;;;;;;;;;;;;;;5055455;28;19912;-49
2022/05/16 00:02:33;;;;;;;;;;;;;;;;;;5056179;28;19987;-46
2022/05/16 00:04:59;;;;;;;;;;;;;;;;;;5056603;28;19948;-43
2022/05/16 00:07:26;;;;;;;;;;;;;;;;;;5055958;28;19925;-51
2022/05/16 00:09:53;;;;;;;;;;;;;;;;;;5055830;28;19996;-50
2022/05/16 00:12:20;;;;;;;;;;;;;;;;;;5055910;28;19917;-49
2022/05/16 00:14:46;;;;;;;;;;;;;;;;;;5056077;28;19916;-55
2022/05/16 00:17:13;;;;;;;;;;;;;;;;;;5055750;28;19916;-59
2022/05/16 00:19:39;;;;;;;;;;;;;;;;;;5055573;28;19916;-50
2022/05/16 00:22:06;;;;;;;;;;;;;;;;;;5055285;28;20367;-48
2022/05/16 00:24:32;;;;;;;;;;;;;;;;;;5055665;28;20345;-44
2022/05/16 00:26:59;;;;;;;;;;;;;;;;;;5055406;28;20252;-50
2022/05/16 00:29:25;;;;;;;;;;;;;;;;;;5055306;28;20018;-53
2022/05/16 00:31:54;;;;;;;;;;;;;;;;;;5054989;28;20042;-54
2022/05/16 00:34:20;;;;;;;;;;;;;;;;;;5054742;28;19905;-49
2022/05/16 00:36:47;;;;;;;;;;;;;;;;;;5054879;28;19909;-56
2022/05/16 00:39:13;;;;;;;;;;;;;;;;;;5055522;28;19931;-48
2022/05/16 00:41:40;;;;;;;;;;;;;;;;;;5055475;28;19908;-48
2022/05/16 00:44:06;;;;;;;;;;;;;;;;;;5054698;28;19917;-51
2022/05/16 00:46:33;;;;;;;;;;;;;;;;;;5054790;28;19909;-48
2022/05/16 00:48:59;;;;;;;;;;;;;;;;;;5055383;28;20378;-45
2022/05/16 00:51:26;;;;;;;;;;;;;;;;;;5054989;28;20008;-56
2022/05/16 00:53:52;;;;;;;;;;;;;;;;;;5055067;28;19916;-51
2022/05/16 00:56:19;;;;;;;;;;;;;;;;;;5054490;28;19995;-54
2022/05/16 00:58:46;;;;;;;;;;;;;;;;;;5052916;28;19909;-44
2022/05/16 01:06:41;;;;;;;;;;;;;;;;;;5054950;28;19983;-46
2022/05/16 01:09:08;;;;;;;;;;;;;;;;;;5054662;28;19948;-53
2022/05/16 01:11:34;;;;;;;;;;;;;;;;;;5054647;28;19909;-58
2022/05/16 01:14:01;;;;;;;;;;;;;;;;;;5053879;28;19909;-52
2022/05/16 01:16:28;;;;;;;;;;;;;;;;;;5053687;28;19943;-55
2022/05/16 01:18:54;;;;;;;;;;;;;;;;;;5049611;28;19969;-47
2022/05/16 01:21:21;;;;;;;;;;;;;;;;;;5054088;28;19916;-47
2022/05/16 01:23:47;;;;;;;;;;;;;;;;;;5051984;28;19943;-54
2022/05/16 01:26:14;;;;;;;;;;;;;;;;;;5051700;28;20319;-56
2022/05/16 01:28:40;;;;;;;;;;;;;;;;;;5049062;28;20299;-50
2022/05/16 01:31:07;;;;;;;;;;;;;;;;;;5051519;28;19917;-52
2022/05/16 01:33:33;;;;;;;;;;;;;;;;;;5051151;28;19967;-49
2022/05/16 01:36:00;;;;;;;;;;;;;;;;;;5051240;28;19920;-46
2022/05/16 01:38:26;;;;;;;;;;;;;;;;;;5049045;28;19943;-52
2022/05/16 01:40:53;;;;;;;;;;;;;;;;;;5051987;28;19909;-54
2022/05/16 01:43:19;;;;;;;;;;;;;;;;;;5050511;28;20322;-51
2022/05/16 01:45:46;;;;;;;;;;;;;;;;;;5051594;28;19944;-45
2022/05/16 01:48:12;;;;;;;;;;;;;;;;;;5048648;28;19916;-55
2022/05/16 01:50:38;;;;;;;;;;;;;;;;;;5050143;28;19999;-46
2022/05/16 01:53:05;;;;;;;;;;;;;;;;;;5050694;28;19909;-57
2022/05/16 01:55:31;;;;;;;;;;;;;;;;;;5051450;28;19908;-43
2022/05/16 01:57:58;;;;;;;;;;;;;;;;;;5048488;28;20367;-47
2022/05/16 02:00:24;;;;;;;;;;;;;;;;;;5050764;28;20303;-41
2022/05/16 02:02:51;;;;;;;;;;;;;;;;;;5051103;28;20331;-45
2022/05/16 02:05:17;;;;;;;;;;;;;;;;;;5051566;28;19912;-50
2022/05/16 02:07:45;;;;;;;;;;;;;;;;;;5048452;28;19921;-46
2022/05/16 02:10:11;;;;;;;;;;;;;;;;;;5050212;28;19909;-42
2022/05/16 02:12:38;;;;;;;;;;;;;;;;;;5050648;28;19976;-42
2022/05/16 02:15:04;;;;;;;;;;;;;;;;;;5051756;28;19917;-49
2022/05/16 02:17:31;;;;;;;;;;;;;;;;;;5048328;28;19916;-55
2022/05/16 02:19:57;;;;;;;;;;;;;;;;;;5049503;28;19919;-42
2022/05/16 02:25:08;;;;;;;;;;;;;;;;;;5049996;28;20327;-43
2022/05/16 02:27:36;;;;;;;;;;;;;;;;;;5047540;28;19920;-54
2022/05/16 02:30:02;;;;;;;;;;;;;;;;;;5050488;28;20332;-48
2022/05/16 02:32:29;;;;;;;;;;;;;;;;;;5050727;28;20363;-56
2022/05/16 02:34:55;;;;;;;;;;;;;;;;;;5050180;28;20318;-49
2022/05/16 02:37:22;;;;;;;;;;;;;;;;;;5048454;28;19909;-49
2022/05/16 02:39:48;;;;;;;;;;;;;;;;;;5050627;28;19927;-49
2022/05/16 02:42:15;;;;;;;;;;;;;;;;;;5050286;28;19912;-43
2022/05/16 02:44:41;;;;;;;;;;;;;;;;;;5050527;28;19940;-42
2022/05/16 02:47:09;;;;;;;;;;;;;;;;;;5047987;28;20287;-52
2022/05/16 02:49:36;;;;;;;;;;;;;;;;;;5050095;28;19912;-49
2022/05/16 02:52:02;;;;;;;;;;;;;;;;;;5050171;28;19956;-60
2022/05/16 02:54:29;;;;;;;;;;;;;;;;;;5050570;28;19917;-58
2022/05/16 02:56:55;;;;;;;;;;;;;;;;;;5047402;28;19999;-59
2022/05/16 02:59:23;;;;;;;;;;;;;;;;;;5050311;28;19909;-59
2022/05/16 03:01:49;;;;;;;;;;;;;;;;;;5049736;28;19917;-44
2022/05/16 03:04:16;;;;;;;;;;;;;;;;;;5047863;28;19917;-59
2022/05/16 03:06:42;;;;;;;;;;;;;;;;;;5048945;28;19928;-52
2022/05/16 03:09:09;;;;;;;;;;;;;;;;;;5047407;28;19908;-53
2022/05/16 03:11:36;;;;;;;;;;;;;;;;;;5050098;28;19917;-53
2022/05/16 03:14:02;;;;;;;;;;;;;;;;;;5051824;28;19976;-50
2022/05/16 03:16:29;;;;;;;;;;;;;;;;;;5050116;28;19909;-54
2022/05/16 03:18:56;;;;;;;;;;;;;;;;;;5046577;28;19909;-50
2022/05/16 03:21:22;;;;;;;;;;;;;;;;;;5049075;28;20002;-45
2022/05/16 03:23:49;;;;;;;;;;;;;;;;;;5049916;28;19916;-50
2022/05/16 03:26:15;;;;;;;;;;;;;;;;;;5049501;28;19962;-50
2022/05/16 03:28:42;;;;;;;;;;;;;;;;;;5046951;28;19913;-47
2022/05/16 03:31:09;;;;;;;;;;;;;;;;;;5049594;28;19919;-47
2022/05/16 03:33:35;;;;;;;;;;;;;;;;;;5049480;28;19963;-48
2022/05/16 03:36:02;;;;;;;;;;;;;;;;;;5049349;28;19909;-47
2022/05/16 03:41:13;;;;;;;;;;;;;;;;;;5048960;28;19959;-51
2022/05/16 03:43:39;;;;;;;;;;;;;;;;;;5045815;28;20474;-52
2022/05/16 03:46:06;;;;;;;;;;;;;;;;;;5047521;28;19916;-49
2022/05/16 03:48:32;;;;;;;;;;;;;;;;;;5045250;28;19913;-51
2022/05/16 03:50:59;;;;;;;;;;;;;;;;;;5047414;28;19936;-52
2022/05/16 03:53:25;;;;;;;;;;;;;;;;;;5047626;28;19975;-51
2022/05/16 03:55:51;;;;;;;;;;;;;;;;;;5043757;28;20005;-46
2022/05/16 03:58:18;;;;;;;;;;;;;;;;;;5045262;28;19917;-47
2022/05/16 04:00:44;;;;;;;;;;;;;;;;;;5048764;28;20340;-44
2022/05/16 04:03:11;;;;;;;;;;;;;;;;;;5049271;28;19913;-55
2022/05/16 04:05:38;;;;;;;;;;;;;;;;;;5049320;28;19912;-43
2022/05/16 04:08:04;;;;;;;;;;;;;;;;;;5046610;28;19921;-48
2022/05/16 04:10:31;;;;;;;;;;;;;;;;;;5048876;28;19944;-53
2022/05/16 04:12:57;;;;;;;;;;;;;;;;;;5049613;28;19916;-51
2022/05/16 04:15:25;;;;;;;;;;;;;;;;;;5051269;28;19947;-47
2022/05/16 04:17:55;;;;;;;;;;;;;;;;;;5045425;28;20144;-48
2022/05/16 04:20:21;;;;;;;;;;;;;;;;;;5048126;28;19913;-46
2022/05/16 04:22:48;;;;;;;;;;;;;;;;;;5049656;28;19912;-49
2022/05/16 04:25:14;;;;;;;;;;;;;;;;;;5049747;28;19913;-51
2022/05/16 04:27:41;;;;;;;;;;;;;;;;;;5046536;28;19909;-50
2022/05/16 04:30:07;;;;;;;;;;;;;;;;;;5049294;28;20252;-56
2022/05/16 04:32:34;;;;;;;;;;;;;;;;;;5051430;28;19992;-49
2022/05/16 04:35:01;;;;;;;;;;;;;;;;;;5052678;28;20383;-55
2022/05/16 04:37:32;;;;;;;;;;;;;;;;;;5050271;28;19912;-48
2022/05/16 04:39:58;;;;;;;;;;;;;;;;;;5052554;28;20359;-52
2022/05/16 04:42:46;;;;;;;;;;;;;;;;;;5055139;28;19916;-48
2022/05/16 04:45:12;;;;;;;;;;;;;;;;;;5054896;28;19966;-49
2022/05/16 04:47:39;;;;;;;;;;;;;;;;;;5055436;28;19934;-51
2022/05/16 04:50:05;;;;;;;;;;;;;;;;;;5054983;28;20326;-48
2022/05/16 04:52:32;;;;;;;;;;;;;;;;;;5055496;28;20015;-51
2022/05/16 04:54:59;;;;;;;;;;;;;;;;;;5054778;28;19970;-53
2022/05/16 04:57:25;;;;;;;;;;;;;;;;;;5054277;28;19916;-47
2022/05/16 04:59:52;;;;;;;;;;;;;;;;;;5055280;28;19909;-49
2022/05/16 05:02:18;;;;;;;;;;;;;;;;;;5051461;28;19921;-52
2022/05/16 05:04:45;;;;;;;;;;;;;;;;;;5054311;28;19987;-45
2022/05/16 05:07:12;;;;;;;;;;;;;;;;;;5051582;28;20050;-56
2022/05/16 05:15:07;;;;;;;;;;;;;;;;;;5051319;28;19920;-51
2022/05/16 05:17:34;;;;;;;;;;;;;;;;;;5050395;28;19958;-44
2022/05/16 05:20:00;;;;;;;;;;;;;;;;;;5047829;28;20283;-54
2022/05/16 05:22:27;;;;;;;;;;;;;;;;;;5052664;28;20338;-43
2022/05/16 05:24:53;;;;;;;;;;;;;;;;;;5051674;28;19924;-44
2022/05/16 05:27:20;;;;;;;;;;;;;;;;;;5052121;28;20257;-45
2022/05/16 05:29:48;;;;;;;;;;;;;;;;;;5049850;28;19909;-41
2022/05/16 05:32:15;;;;;;;;;;;;;;;;;;5053612;28;19919;-43
2022/05/16 05:34:41;;;;;;;;;;;;;;;;;;5053411;28;19944;-44
2022/05/16 05:37:08;;;;;;;;;;;;;;;;;;5054160;28;19920;-50
2022/05/16 05:39:35;;;;;;;;;;;;;;;;;;5053839;28;19913;-42
2022/05/16 05:42:02;;;;;;;;;;;;;;;;;;5053960;28;19916;-43
2022/05/16 05:44:28;;;;;;;;;;;;;;;;;;5053304;28;20043;-53
2022/05/16 05:46:55;;;;;;;;;;;;;;;;;;5053586;28;20296;-57
2022/05/16 05:49:22;;;;;;;;;;;;;;;;;;5053706;28;20330;-56
2022/05/16 05:51:48;;;;;;;;;;;;;;;;;;5053916;28;20702;-51
2022/05/16 05:54:15;;;;;;;;;;;;;;;;;;5052901;28;19909;-53
2022/05/16 05:56:41;;;;;;;;;;;;;;;;;;5054118;28;19909;-56
2022/05/16 05:59:08;;;;;;;;;;;;;;;;;;5054106;28;19959;-49
2022/05/16 06:01:34;;;;;;;;;;;;;;;;;;5053902;28;20367;-51
2022/05/16 06:04:01;;;;;;;;;;;;;;;;;;5052910;28;19921;-46
2022/05/16 06:06:28;;;;;;;;;;;;;;;;;;5054430;28;19921;-51
2022/05/16 06:08:54;;;;;;;;;;;;;;;;;;5053878;28;20275;-45
2022/05/16 06:11:21;;;;;;;;;;;;;;;;;;5053696;28;20003;-50
2022/05/16 06:13:48;;;;;;;;;;;;;;;;;;5053794;28;19921;-52
2022/05/16 06:16:14;;;;;;;;;;;;;;;;;;5052983;28;19912;-58
2022/05/16 06:18:41;;;;;;;;;;;;;;;;;;5053376;28;19905;-55
2022/05/16 06:21:07;;;;;;;;;;;;;;;;;;5053380;28;19908;-56
2022/05/16 06:23:34;;;;;;;;;;;;;;;;;;5053578;28;19986;-49
2022/05/16 06:26:00;;;;;;;;;;;;;;;;;;5053198;28;20303;-46
2022/05/16 06:28:27;;;;;;;;;;;;;;;;;;5053637;28;19963;-52
2022/05/16 06:30:53;;;;;;;;;;;;;;;;;;5053430;28;20008;-54
2022/05/16 06:33:20;;;;;;;;;;;;;;;;;;5053139;28;20336;-48
2022/05/16 06:35:46;;;;;;;;;;;;;;;;;;5051976;28;19939;-53
2022/05/16 06:38:13;;;;;;;;;;;;;;;;;;5052793;28;19908;-58
2022/05/16 06:40:39;;;;;;;;;;;;;;;;;;5053061;28;19948;-61
2022/05/16 06:43:06;;;;;;;;;;;;;;;;;;5053112;28;19989;-41
2022/05/16 06:45:32;;;;;;;;;;;;;;;;;;5053382;28;20312;-50
2022/05/16 06:47:59;;;;;;;;;;;;;;;;;;5052907;28;19912;-56
2022/05/16 06:50:25;;;;;;;;;;;;;;;;;;5052441;28;20278;-49
2022/05/16 06:52:52;;;;;;;;;;;;;;;;;;5052614;28;19913;-49
2022/05/16 06:55:18;;;;;;;;;;;;;;;;;;5052717;28;19935;-49
2022/05/16 06:57:45;;;;;;;;;;;;;;;;;;5052748;28;19909;-53
2022/05/16 07:00:11;;;;;;;;;;;;;;;;;;5052464;28;20287;-54
2022/05/16 07:02:38;;;;;;;;;;;;;;;;;;5052847;28;19913;-57
2022/05/16 07:05:04;;;;;;;;;;;;;;;;;;5052434;28;19927;-53
2022/05/16 07:07:31;;;;;;;;;;;;;;;;;;5052913;28;19921;-54
2022/05/16 07:09:57;;;;;;;;;;;;;;;;;;5052076;28;20332;-55
2022/05/16 07:12:24;;;;;;;;;;;;;;;;;;5052816;28;19909;-54
2022/05/16 07:14:50;;;;;;;;;;;;;;;;;;5052459;28;20335;-46
2022/05/16 07:17:17;;;;;;;;;;;;;;;;;;5049198;28;19958;-43
2022/05/16 07:19:46;;;;;;;;;;;;;;;;;;5049484;28;19909;-41
2022/05/16 07:22:12;;;;;;;;;;;;;;;;;;5049329;28;19971;-40
2022/05/16 07:24:39;;;;;;;;;;;;;;;;;;5052738;28;19920;-39
2022/05/16 07:29:50;;;;;;;;;;;;;;;;;;5047672;28;19962;-40
2022/05/16 07:32:17;;;;;;;;;;;;;;;;;;5049543;28;19909;-44
2022/05/16 07:34:43;;;;;;;;;;;;;;;;;;5049246;28;19909;-45
2022/05/16 07:37:10;;;;;;;;;;;;;;;;;;5048218;28;19908;-48
2022/05/16 07:39:36;;;;;;;;;;;;;;;;;;5048903;28;19916;-47
2022/05/16 07:42:03;;;;;;;;;;;;;;;;;;5049636;28;19909;-40
2022/05/16 07:44:29;;;;;;;;;;;;;;;;;;5048878;28;19917;-49
2022/05/16 07:46:56;;;;;;;;;;;;;;;;;;5046530;28;20419;-40
2022/05/16 07:49:22;;;;;;;;;;;;;;;;;;5049201;28;20425;-40
2022/05/16 07:51:49;;;;;;;;;;;;;;;;;;5048692;28;19909;-41
2022/05/16 07:54:16;;;;;;;;;;;;;;;;;;5049241;28;19917;-40
2022/05/16 07:56:42;;;;;;;;;;;;;;;;;;5047152;28;19909;-45
2022/05/16 07:59:09;;;;;;;;;;;;;;;;;;5051096;28;19955;-58
2022/05/16 08:01:36;;;;;;;;;;;;;;;;;;5050716;28;19919;-49
2022/05/16 08:04:02;;;;;;;;;;;;;;;;;;5046455;28;20388;-53
2022/05/16 08:06:29;;;;;;;;;;;;;;;;;;5048393;28;19924;-50
2022/05/16 08:11:40;;;;;;;;;;;;;;;;;;5035986;28;19916;-51
2022/05/16 08:14:07;;;;;;;;;;;;;;;;;;5036131;28;20421;-58
2022/05/16 08:16:33;;;;;;;;;;;;;;;;;;5036025;28;20272;-58
2022/05/16 08:19:00;;;;;;;;;;;;;;;;;;5035419;28;19915;-50
2022/05/16 08:21:26;;;;;;;;;;;;;;;;;;5035950;28;19909;-55
2022/05/16 08:23:53;;;;;;;;;;;;;;;;;;5035807;28;19956;-52
2022/05/16 08:26:19;;;;;;;;;;;;;;;;;;5035735;28;20006;-52
2022/05/16 08:28:46;;;;;;;;;;;;;;;;;;5036101;28;19909;-55
2022/05/16 08:31:12;;;;;;;;;;;;;;;;;;5035995;28;19954;-50
2022/05/16 08:33:38;;;;;;;;;;;;;;;;;;5036041;28;20003;-51
2022/05/16 08:41:34;;;;;;;;;;;;;;;;;;5035855;28;20295;-50
2022/05/16 08:44:01;;;;;;;;;;;;;;;;;;5036089;28;19986;-52
2022/05/16 08:46:27;;;;;;;;;;;;;;;;;;5034837;28;19935;-52
2022/05/16 08:48:54;;;;;;;;;;;;;;;;;;5035955;28;19956;-54
2022/05/16 08:51:20;;;;;;;;;;;;;;;;;;5036078;28;19909;-56
2022/05/16 08:53:47;;;;;;;;;;;;;;;;;;5035519;28;19916;-52
2022/05/16 08:56:13;;;;;;;;;;;;;;;;;;5034937;28;19963;-50
2022/05/16 08:58:40;;;;;;;;;;;;;;;;;;5034716;28;20418;-49
2022/05/16 09:01:06;;;;;;;;;;;;;;;;;;5034012;28;20001;-54
2022/05/16 09:03:33;;;;;;;;;;;;;;;;;;5034977;28;19920;-50
2022/05/16 09:06:01;;;;;;;;;;;;;;;;;;5034714;28;20006;-51
2022/05/16 09:08:28;;;;;;;;;;;;;;;;;;5033294;28;20360;-56
2022/05/16 09:10:55;;;;;;;;;;;;;;;;;;5035160;28;19955;-49
2022/05/16 09:13:21;;;;;;;;;;;;;;;;;;5035178;28;19959;-54
2022/05/16 09:15:49;;;;;;;;;;;;;;;;;;5035244;28;20360;-50
2022/05/16 09:18:17;;;;;;;;;;;;;;;;;;5033582;28;19917;-56
2022/05/16 09:20:43;;;;;;;;;;;;;;;;;;5035652;28;19909;-54
2022/05/16 09:23:10;;;;;;;;;;;;;;;;;;5034548;28;20257;-48
2022/05/16 09:25:37;;;;;;;;;;;;;;;;;;5034910;28;19952;-53
2022/05/16 09:30:47;;;;;;;;;;;;;;;;;;5034665;28;20498;-50
2022/05/16 09:33:14;;;;;;;;;;;;;;;;;;5034503;28;20280;-51
2022/05/16 09:35:40;;;;;;;;;;;;;;;;;;5034363;28;20312;-52
2022/05/16 09:38:07;;;;;;;;;;;;;;;;;;5034327;28;19917;-50
2022/05/16 09:40:34;;;;;;;;;;;;;;;;;;5034521;28;19913;-51
2022/05/16 09:43:00;;;;;;;;;;;;;;;;;;5034307;28;19909;-55
2022/05/16 09:45:28;;;;;;;;;;;;;;;;;;5034908;28;19959;-51
2022/05/16 09:47:55;;;;;;;;;;;;;;;;;;5034328;28;19909;-55
2022/05/16 09:50:21;;;;;;;;;;;;;;;;;;5034436;28;19909;-49
2022/05/16 09:52:48;;;;;;;;;;;;;;;;;;5034578;28;20483;-51
2022/05/16 09:55:15;;;;;;;;;;;;;;;;;;5034258;28;20368;-53
2022/05/16 09:57:41;;;;;;;;;;;;;;;;;;5034324;28;19963;-53
2022/05/16 10:00:08;;;;;;;;;;;;;;;;;;5034409;28;19979;-58
2022/05/16 10:02:34;;;;;;;;;;;;;;;;;;5034497;28;19920;-54
2022/05/16 10:05:00;;;;;;;;;;;;;;;;;;5034135;28;19939;-47
2022/05/16 10:07:27;;;;;;;;;;;;;;;;;;5034265;28;20303;-59
2022/05/16 10:09:53;;;;;;;;;;;;;;;;;;5033957;28;19919;-52
2022/05/16 10:12:20;;;;;;;;;;;;;;;;;;5032938;28;20251;-57
2022/05/16 10:14:49;;;;;;;;;;;;;;;;;;5034536;28;19909;-53
2022/05/16 10:17:16;;;;;;;;;;;;;;;;;;5034182;28;19960;-54
2022/05/16 10:19:43;;;;;;;;;;;;;;;;;;5034082;28;19909;-43
2022/05/16 10:22:11;;;;;;;;;;;;;;;;;;5033704;28;19909;-51
2022/05/16 10:24:38;;;;;;;;;;;;;;;;;;5043351;28;19932;-52
2022/05/16 10:27:07;;;;;;;;;;;;;;;;;;5052339;28;19913;-53
2022/05/16 10:29:34;;;;;;;;;;;;;;;;;;5052314;28;19952;-51
2022/05/16 10:34:45;;;;;;;;;;;;;;;;;;5045776;28;19916;-48
2022/05/16 10:37:11;;;;;;;;;;;;;;;;;;5050371;28;20031;-48
2022/05/16 10:39:38;;;;;;;;;;;;;;;;;;5050951;28;19913;-56
2022/05/16 10:42:05;;;;;;;;;;;;;;;;;;5052252;28;19909;-44
2022/05/16 10:44:31;;;;;;;;;;;;;;;;;;5047634;28;19983;-50
2022/05/16 10:46:58;;;;;;;;;;;;;;;;;;5049810;28;19916;-49
2022/05/16 10:49:24;;;;;;;;;;;;;;;;;;5050642;28;20016;-50
2022/05/16 10:51:51;;;;;;;;;;;;;;;;;;5050709;28;20355;-55
2022/05/16 10:54:18;;;;;;;;;;;;;;;;;;5047263;28;19908;-49
2022/05/16 10:56:47;;;;;;;;;;;;;;;;;;5051000;28;19909;-50
2022/05/16 10:59:15;;;;;;;;;;;;;;;;;;5047624;28;19909;-53
2022/05/16 11:01:41;;;;;;;;;;;;;;;;;;5050430;28;20356;-49
2022/05/16 11:04:08;;;;;;;;;;;;;;;;;;5047145;28;19921;-52
2022/05/16 11:06:34;;;;;;;;;;;;;;;;;;5050269;28;20340;-54
2022/05/16 11:09:01;;;;;;;;;;;;;;;;;;5050280;28;19913;-47
2022/05/16 11:11:27;;;;;;;;;;;;;;;;;;5050306;28;20403;-47
2022/05/16 11:13:54;;;;;;;;;;;;;;;;;;5051502;28;20275;-53
2022/05/16 11:16:20;;;;;;;;;;;;;;;;;;5053164;28;19912;-55
2022/05/16 11:18:47;;;;;;;;;;;;;;;;;;5053072;28;20363;-50
2022/05/16 11:21:13;;;;;;;;;;;;;;;;;;5052819;28;19939;-45
2022/05/16 11:23:40;;;;;;;;;;;;;;;;;;5052781;28;19913;-50
2022/05/16 11:26:06;;;;;;;;;;;;;;;;;;5052660;28;19913;-49
2022/05/16 11:28:33;;;;;;;;;;;;;;;;;;5051936;28;19913;-44
2022/05/16 11:30:59;;;;;;;;;;;;;;;;;;5046771;28;19916;-44
2022/05/16 11:33:26;;;;;;;;;;;;;;;;;;5050618;28;19935;-51
2022/05/16 11:35:54;;;;;;;;;;;;;;;;;;5052262;28;19909;-51
2022/05/16 11:38:20;;;;;;;;;;;;;;;;;;5049776;28;19947;-54
2022/05/16 11:40:47;;;;;;;;;;;;;;;;;;5046095;28;20180;-48
2022/05/16 11:43:14;;;;;;;;;;;;;;;;;;5049705;28;19951;-54
2022/05/16 11:45:41;;;;;;;;;;;;;;;;;;5049959;28;19936;-55
2022/05/16 11:48:07;;;;;;;;;;;;;;;;;;5049256;28;19921;-50
2022/05/16 11:50:34;;;;;;;;;;;;;;;;;;5045020;28;19959;-48
2022/05/16 11:53:01;;;;;;;;;;;;;;;;;;5049731;28;19956;-47
2022/05/16 12:00:56;;;;;;;;;;;;;;;;;;5045913;28;19931;-57
2022/05/16 12:03:23;;;;;;;;;;;;;;;;;;5049682;28;19932;-52
2022/05/16 12:05:49;;;;;;;;;;;;;;;;;;5049759;28;19912;-46
2022/05/16 12:08:16;;;;;;;;;;;;;;;;;;5049755;28;19921;-44
2022/05/16 12:10:42;;;;;;;;;;;;;;;;;;5044366;28;19934;-44
2022/05/16 12:13:09;;;;;;;;;;;;;;;;;;5047395;28;19909;-48
2022/05/16 12:15:35;;;;;;;;;;;;;;;;;;5049788;28;21513;-50
2022/05/16 12:18:02;;;;;;;;;;;;;;;;;;5049705;28;19915;-47
2022/05/16 12:20:28;;;;;;;;;;;;;;;;;;5044989;28;19913;-44
2022/05/16 12:22:55;;;;;;;;;;;;;;;;;;5048588;28;19909;-46
2022/05/16 12:25:21;;;;;;;;;;;;;;;;;;5049842;28;19979;-48
2022/05/16 12:27:48;;;;;;;;;;;;;;;;;;5049575;28;19913;-45
2022/05/16 12:30:14;;;;;;;;;;;;;;;;;;5045115;28;20025;-41
2022/05/16 12:32:41;;;;;;;;;;;;;;;;;;5048757;28;19913;-42
2022/05/16 12:35:07;;;;;;;;;;;;;;;;;;5049216;28;19920;-41
2022/05/16 12:37:34;;;;;;;;;;;;;;;;;;5049024;28;19917;-46
2022/05/16 12:40:00;;;;;;;;;;;;;;;;;;5043319;28;20404;-44
2022/05/16 12:42:27;;;;;;;;;;;;;;;;;;5049929;28;20351;-44
2022/05/16 12:44:53;;;;;;;;;;;;;;;;;;5049713;28;20287;-41
2022/05/16 12:47:20;;;;;;;;;;;;;;;;;;5050297;28;19915;-50
2022/05/16 12:49:49;;;;;;;;;;;;;;;;;;5049760;28;20007;-51
2022/05/16 12:52:15;;;;;;;;;;;;;;;;;;5048159;28;19935;-48
2022/05/16 12:54:42;;;;;;;;;;;;;;;;;;5053474;28;20283;-52
2022/05/16 12:57:08;;;;;;;;;;;;;;;;;;5055691;28;19920;-47
2022/05/16 12:59:34;;;;;;;;;;;;;;;;;;5052696;28;19909;-47
2022/05/16 13:02:01;;;;;;;;;;;;;;;;;;5050108;28;19916;-45
2022/05/16 13:04:27;;;;;;;;;;;;;;;;;;5053078;28;20015;-41
2022/05/16 13:06:54;;;;;;;;;;;;;;;;;;5052819;28;19924;-45
2022/05/16 13:09:20;;;;;;;;;;;;;;;;;;5052577;28;19918;-45
2022/05/16 13:11:47;;;;;;;;;;;;;;;;;;5051117;28;19909;-47
2022/05/16 13:14:13;;;;;;;;;;;;;;;;;;5055479;28;19974;-52
2022/05/16 13:16:40;;;;;;;;;;;;;;;;;;5055848;28;19915;-52
2022/05/16 13:19:06;;;;;;;;;;;;;;;;;;5054560;28;19916;-41
2022/05/16 13:21:33;;;;;;;;;;;;;;;;;;5061902;28;19909;-39
2022/05/16 13:23:59;;;;;;;;;;;;;;;;;;5053465;28;20023;-41
2022/05/16 13:29:22;;;;;;;;;;;;;;;;;;5053327;28;20275;-40
2022/05/16 13:31:49;;;;;;;;;;;;;;;;;;5054401;28;19916;-48
2022/05/16 13:34:16;;;;;;;;;;;;;;;;;;5054646;28;19916;-52
2022/05/16 13:36:42;;;;;;;;;;;;;;;;;;5053492;28;19954;-50
2022/05/16 13:39:11;;;;;;;;;;;;;;;;;;5054668;28;19913;-48
2022/05/16 13:41:38;;;;;;;;;;;;;;;;;;5055112;28;19913;-47
2022/05/16 13:44:05;;;;;;;;;;;;;;;;;;5054923;28;20268;-49
2022/05/16 13:46:34;;;;;;;;;;;;;;;;;;5053619;28;19957;-42
2022/05/16 13:49:01;;;;;;;;;;;;;;;;;;5055039;28;19908;-54
2022/05/16 13:51:27;;;;;;;;;;;;;;;;;;5054969;28;20318;-42
2022/05/16 13:53:54;;;;;;;;;;;;;;;;;;5054596;28;20253;-42
2022/05/16 13:56:20;;;;;;;;;;;;;;;;;;5055284;28;19916;-46
2022/05/16 13:58:47;;;;;;;;;;;;;;;;;;5054650;28;19915;-54
2022/05/16 14:01:13;;;;;;;;;;;;;;;;;;5054628;28;19970;-55
2022/05/16 14:03:46;;;;;;;;;;;;;;;;;;5054604;28;19919;-42
2022/05/16 14:06:12;;;;;;;;;;;;;;;;;;5053419;28;19921;-47
2022/05/16 14:08:39;;;;;;;;;;;;;;;;;;5054713;28;19952;-44
2022/05/16 14:11:05;;;;;;;;;;;;;;;;;;5054411;28;19908;-45
2022/05/16 14:13:32;;;;;;;;;;;;;;;;;;5054550;28;19915;-54
2022/05/16 14:15:58;;;;;;;;;;;;;;;;;;5054035;28;19913;-43
2022/05/16 14:18:25;;;;;;;;;;;;;;;;;;5054600;28;20359;-51
2022/05/16 14:20:51;;;;;;;;;;;;;;;;;;5054063;28;19909;-48
2022/05/16 14:23:18;;;;;;;;;;;;;;;;;;5054055;28;19909;-55
2022/05/16 14:25:44;;;;;;;;;;;;;;;;;;5054209;28;20150;-45
2022/05/16 14:28:11;;;;;;;;;;;;;;;;;;5053932;28;19932;-48
2022/05/16 14:30:38;;;;;;;;;;;;;;;;;;5053934;28;19982;-44
2022/05/16 14:33:06;;;;;;;;;;;;;;;;;;5054292;28;20271;-47
2022/05/16 14:35:33;;;;;;;;;;;;;;;;;;5054028;28;19995;-50
2022/05/16 14:38:00;;;;;;;;;;;;;;;;;;5053697;28;19912;-49
2022/05/16 14:40:28;;;;;;;;;;;;;;;;;;5054123;28;19908;-52
2022/05/16 14:42:54;;;;;;;;;;;;;;;;;;5053943;28;19909;-41
2022/05/16 14:46:42;;;;;;;;;;;;;;;;;;5053762;28;19970;-54
2022/05/16 14:48:07;;;;;;;;;;;;;;;;;;5053597;28;20010;-44
2022/05/16 14:50:34;;;;;;;;;;;;;;;;;;5053818;28;19913;-42
2022/05/16 14:53:05;;;;;;;;;;;;;;;;;;5053641;28;19908;-46
2022/05/16 14:55:31;;;;;;;;;;;;;;;;;;5053667;28;19909;-46
2022/05/16 14:58:00;;;;;;;;;;;;;;;;;;5053459;28;20276;-44
2022/05/16 15:05:56;;;;;;;;;;;;;;;;;;5053150;28;19915;-45
2022/05/16 15:08:23;;;;;;;;;;;;;;;;;;5053469;28;19915;-47
2022/05/16 15:10:50;;;;;;;;;;;;;;;;;;5053449;28;19940;-48
2022/05/16 15:13:16;;;;;;;;;;;;;;;;;;5053297;28;19909;-46
2022/05/16 15:15:43;;;;;;;;;;;;;;;;;;5053087;28;19987;-45
2022/05/16 15:18:09;;;;;;;;;;;;;;;;;;5052850;28;19916;-48
2022/05/16 15:20:36;;;;;;;;;;;;;;;;;;5053364;28;19909;-47
2022/05/16 15:23:02;;;;;;;;;;;;;;;;;;5053619;28;19912;-43
2022/05/16 15:25:29;;;;;;;;;;;;;;;;;;5053294;28;19924;-45
2022/05/16 15:27:57;;;;;;;;;;;;;;;;;;5053054;28;19909;-46
2022/05/16 15:30:23;;;;;;;;;;;;;;;;;;5053223;28;19947;-52
2022/05/16 15:32:50;;;;;;;;;;;;;;;;;;5053282;28;19916;-55
2022/05/16 15:35:17;;;;;;;;;;;;;;;;;;5053165;28;20323;-47
2022/05/16 15:37:44;;;;;;;;;;;;;;;;;;5053152;28;19909;-48
2022/05/16 15:40:10;;;;;;;;;;;;;;;;;;5052965;28;20294;-46
2022/05/16 15:42:37;;;;;;;;;;;;;;;;;;5053145;28;19913;-49
2022/05/16 15:45:03;;;;;;;;;;;;;;;;;;5053065;28;20367;-46
2022/05/16 15:47:30;;;;;;;;;;;;;;;;;;5053125;28;19909;-50
2022/05/16 15:49:57;;;;;;;;;;;;;;;;;;5052714;28;19915;-46
2022/05/16 15:52:23;;;;;;;;;;;;;;;;;;5053552;28;19916;-49
2022/05/16 15:54:50;;;;;;;;;;;;;;;;;;5052858;28;19917;-52
2022/05/16 15:57:16;;;;;;;;;;;;;;;;;;5052909;28;19909;-49
2022/05/16 15:59:43;;;;;;;;;;;;;;;;;;5053013;28;20003;-54
2022/05/16 16:02:12;;;;;;;;;;;;;;;;;;5052512;28;20339;-49
2022/05/16 16:10:08;;;;;;;;;;;;;;;;;;5052725;28;19920;-47
2022/05/16 16:12:34;;;;;;;;;;;;;;;;;;5050255;28;20383;-50
2022/05/16 16:15:02;;;;;;;;;;;;;;;;;;5052695;28;19909;-48
2022/05/16 16:17:29;;;;;;;;;;;;;;;;;;5052753;28;20378;-52
2022/05/16 16:19:55;;;;;;;;;;;;;;;;;;5052710;28;19909;-45
2022/05/16 16:22:22;;;;;;;;;;;;;;;;;;5052663;28;19905;-47
2022/05/16 16:24:50;;;;;;;;;;;;;;;;;;5052718;28;19921;-48
2022/05/16 16:27:16;;;;;;;;;;;;;;;;;;5053125;28;19979;-50
2022/05/16 16:29:43;;;;;;;;;;;;;;;;;;5056508;28;20344;-49
2022/05/16 16:32:09;;;;;;;;;;;;;;;;;;5056356;28;20312;-51
2022/05/16 16:34:36;;;;;;;;;;;;;;;;;;5056234;28;19905;-53
2022/05/16 16:37:02;;;;;;;;;;;;;;;;;;5056370;28;20340;-52
2022/05/16 16:39:29;;;;;;;;;;;;;;;;;;5056207;28;20233;-55
2022/05/16 16:41:56;;;;;;;;;;;;;;;;;;5056165;28;20428;-51
2022/05/16 16:44:23;;;;;;;;;;;;;;;;;;5056200;28;19917;-52
2022/05/16 16:46:50;;;;;;;;;;;;;;;;;;5056302;28;19947;-53
2022/05/16 16:49:16;;;;;;;;;;;;;;;;;;5056178;28;19912;-53
2022/05/16 16:57:27;;;;;;;;;;;;;;;;;;5056236;28;19915;-47
2022/05/16 16:59:54;;;;;;;;;;;;;;;;;;5055944;28;20260;-49
2022/05/16 17:02:21;;;;;;;;;;;;;;;;;;5055938;28;19999;-53
2022/05/16 17:04:49;;;;;;;;;;;;;;;;;;5055732;28;19923;-51
2022/05/16 17:07:16;;;;;;;;;;;;;;;;;;5055913;28;20016;-56
2022/05/16 17:09:42;;;;;;;;;;;;;;;;;;5055858;28;19916;-47
2022/05/16 17:12:09;;;;;;;;;;;;;;;;;;5055544;28;19912;-46
2022/05/16 17:14:35;;;;;;;;;;;;;;;;;;5055663;28;20009;-55
2022/05/16 17:17:02;;;;;;;;;;;;;;;;;;5055576;28;19959;-49
2022/05/16 17:19:30;;;;;;;;;;;;;;;;;;5055515;28;20058;-51
2022/05/16 17:21:56;;;;;;;;;;;;;;;;;;5055133;28;19909;-50
2022/05/16 17:24:23;;;;;;;;;;;;;;;;;;5055350;28;19917;-52
2022/05/16 17:26:49;;;;;;;;;;;;;;;;;;5055487;28;19916;-51
2022/05/16 17:29:16;;;;;;;;;;;;;;;;;;5055412;28;20232;-53
2022/05/16 17:31:44;;;;;;;;;;;;;;;;;;5055334;28;19908;-49
2022/05/16 17:34:10;;;;;;;;;;;;;;;;;;5055326;28;19908;-53
2022/05/16 17:36:37;;;;;;;;;;;;;;;;;;5055136;28;19909;-48
2022/05/16 17:39:06;;;;;;;;;;;;;;;;;;5054660;28;19913;-52